sensor_id;sensor_type;location;lat;lon;timestamp;P1;durP1;ratioP1;P2;durP2;ratioP2
75689;SDS011;64303;53.118;9.044;2022-10-17T00:01:29;8.52;;;3.50;;
75689;SDS011;64303;53.118;9.044;2022-10-17T00:03:57;8.48;;;5.22;;
75689;SDS011;64303;53.118;9.044;2022-10-17T00:06:24;6.95;;;5.93;;
75689;SDS011;64303;53.118;9.044;2022-10-17T00:08:50;10.52;;;7.65;;
75689;SDS011;64303;53.118;9.044;2022-10-17T00:11:17;9.05;;;6.93;;
75689;SDS011;64303;53.118;9.044;2022-10-17T00:13:45;13.95;;;8.35;;
75689;SDS011;64303;53.118;9.044;2022-10-17T00:16:13;13.18;;;7.32;;
75689;SDS011;64303;53.118;9.044;2022-10-17T00:18:40;6.50;;;5.80;;
75689;SDS011;64303;53.118;9.044;2022-10-17T00:21:14;6.63;;;3.90;;
75689;SDS011;64303;53.118;9.044;2022-10-17T00:23:41;7.22;;;5.57;;
75689;SDS011;64303;53.118;9.044;2022-10-17T00:26:08;5.88;;;4.80;;
75689;SDS011;64303;53.118;9.044;2022-10-17T00:28:35;6.20;;;4.53;;
75689;SDS011;64303;53.118;9.044;2022-10-17T00:31:02;6.30;;;5.03;;
75689;SDS011;64303;53.118;9.044;2022-10-17T00:33:30;6.68;;;3.92;;
75689;SDS011;64303;53.118;9.044;2022-10-17T00:36:04;12.80;;;8.82;;
75689;SDS011;64303;53.118;9.044;2022-10-17T00:38:32;9.30;;;6.20;;
75689;SDS011;64303;53.118;9.044;2022-10-17T00:45:52;7.57;;;5.35;;
75689;SDS011;64303;53.118;9.044;2022-10-17T00:48:18;8.07;;;5.80;;
75689;SDS011;64303;53.118;9.044;2022-10-17T00:50:46;8.43;;;4.15;;
75689;SDS011;64303;53.118;9.044;2022-10-17T00:53:13;4.80;;;4.40;;
75689;SDS011;64303;53.118;9.044;2022-10-17T00:55:43;5.63;;;4.30;;
75689;SDS011;64303;53.118;9.044;2022-10-17T00:58:13;8.27;;;6.45;;
75689;SDS011;64303;53.118;9.044;2022-10-17T01:00:41;5.47;;;4.97;;
75689;SDS011;64303;53.118;9.044;2022-10-17T01:03:08;5.82;;;3.90;;
75689;SDS011;64303;53.118;9.044;2022-10-17T01:05:35;7.43;;;3.53;;
75689;SDS011;64303;53.118;9.044;2022-10-17T01:08:02;5.63;;;4.22;;
75689;SDS011;64303;53.118;9.044;2022-10-17T01:10:31;12.13;;;3.05;;
75689;SDS011;64303;53.118;9.044;2022-10-17T01:13:05;6.13;;;4.93;;
75689;SDS011;64303;53.118;9.044;2022-10-17T01:15:37;9.38;;;6.60;;
75689;SDS011;64303;53.118;9.044;2022-10-17T01:18:11;5.32;;;4.47;;
75689;SDS011;64303;53.118;9.044;2022-10-17T01:20:50;8.13;;;5.70;;
75689;SDS011;64303;53.118;9.044;2022-10-17T01:23:42;7.10;;;4.45;;
75689;SDS011;64303;53.118;9.044;2022-10-17T01:26:22;8.10;;;5.43;;
75689;SDS011;64303;53.118;9.044;2022-10-17T01:29:01;7.90;;;4.22;;
75689;SDS011;64303;53.118;9.044;2022-10-17T01:31:35;8.75;;;4.28;;
75689;SDS011;64303;53.118;9.044;2022-10-17T01:34:05;5.82;;;5.22;;
75689;SDS011;64303;53.118;9.044;2022-10-17T01:36:38;5.22;;;3.60;;
75689;SDS011;64303;53.118;9.044;2022-10-17T01:39:13;6.00;;;4.72;;
75689;SDS011;64303;53.118;9.044;2022-10-17T01:41:42;4.70;;;3.55;;
75689;SDS011;64303;53.118;9.044;2022-10-17T01:44:12;4.88;;;4.43;;
75689;SDS011;64303;53.118;9.044;2022-10-17T01:46:43;3.63;;;2.90;;
75689;SDS011;64303;53.118;9.044;2022-10-17T01:49:12;5.30;;;4.78;;
75689;SDS011;64303;53.118;9.044;2022-10-17T01:51:40;5.57;;;5.07;;
75689;SDS011;64303;53.118;9.044;2022-10-17T01:54:10;4.63;;;3.90;;
75689;SDS011;64303;53.118;9.044;2022-10-17T01:56:39;7.90;;;5.15;;
75689;SDS011;64303;53.118;9.044;2022-10-17T01:59:08;6.97;;;4.03;;
75689;SDS011;64303;53.118;9.044;2022-10-17T02:01:37;6.15;;;5.53;;
75689;SDS011;64303;53.118;9.044;2022-10-17T02:04:08;4.93;;;3.95;;
75689;SDS011;64303;53.118;9.044;2022-10-17T02:06:35;5.93;;;5.47;;
75689;SDS011;64303;53.118;9.044;2022-10-17T02:09:16;7.45;;;4.78;;
75689;SDS011;64303;53.118;9.044;2022-10-17T02:11:46;5.50;;;4.88;;
75689;SDS011;64303;53.118;9.044;2022-10-17T02:14:20;5.97;;;5.15;;
75689;SDS011;64303;53.118;9.044;2022-10-17T02:16:55;6.35;;;5.55;;
75689;SDS011;64303;53.118;9.044;2022-10-17T02:19:31;7.30;;;4.05;;
75689;SDS011;64303;53.118;9.044;2022-10-17T02:22:03;9.25;;;7.28;;
75689;SDS011;64303;53.118;9.044;2022-10-17T02:24:38;6.20;;;4.95;;
75689;SDS011;64303;53.118;9.044;2022-10-17T02:27:13;6.45;;;4.22;;
75689;SDS011;64303;53.118;9.044;2022-10-17T02:29:44;6.65;;;5.90;;
75689;SDS011;64303;53.118;9.044;2022-10-17T02:32:13;6.47;;;4.28;;
75689;SDS011;64303;53.118;9.044;2022-10-17T02:34:44;6.75;;;4.63;;
75689;SDS011;64303;53.118;9.044;2022-10-17T02:37:13;6.13;;;5.47;;
75689;SDS011;64303;53.118;9.044;2022-10-17T02:39:40;7.18;;;6.55;;
75689;SDS011;64303;53.118;9.044;2022-10-17T02:42:10;5.47;;;4.47;;
75689;SDS011;64303;53.118;9.044;2022-10-17T02:44:38;6.43;;;5.00;;
75689;SDS011;64303;53.118;9.044;2022-10-17T02:47:08;6.70;;;6.00;;
75689;SDS011;64303;53.118;9.044;2022-10-17T02:49:37;5.88;;;5.30;;
75689;SDS011;64303;53.118;9.044;2022-10-17T02:52:07;6.63;;;6.07;;
75689;SDS011;64303;53.118;9.044;2022-10-17T02:54:37;6.40;;;5.90;;
75689;SDS011;64303;53.118;9.044;2022-10-17T02:57:07;7.65;;;6.82;;
75689;SDS011;64303;53.118;9.044;2022-10-17T02:59:37;10.10;;;5.32;;
75689;SDS011;64303;53.118;9.044;2022-10-17T03:02:05;5.93;;;5.32;;
75689;SDS011;64303;53.118;9.044;2022-10-17T03:04:32;7.15;;;6.00;;
75689;SDS011;64303;53.118;9.044;2022-10-17T03:06:59;6.82;;;5.80;;
75689;SDS011;64303;53.118;9.044;2022-10-17T03:09:27;5.88;;;5.28;;
75689;SDS011;64303;53.118;9.044;2022-10-17T03:11:53;7.45;;;5.20;;
75689;SDS011;64303;53.118;9.044;2022-10-17T03:14:20;8.00;;;7.28;;
75689;SDS011;64303;53.118;9.044;2022-10-17T03:16:46;6.97;;;6.32;;
75689;SDS011;64303;53.118;9.044;2022-10-17T03:19:14;8.50;;;6.18;;
75689;SDS011;64303;53.118;9.044;2022-10-17T03:21:40;7.07;;;6.38;;
75689;SDS011;64303;53.118;9.044;2022-10-17T03:24:07;6.75;;;5.97;;
75689;SDS011;64303;53.118;9.044;2022-10-17T03:26:35;7.45;;;6.13;;
75689;SDS011;64303;53.118;9.044;2022-10-17T03:29:01;6.05;;;5.45;;
75689;SDS011;64303;53.118;9.044;2022-10-17T03:31:28;8.43;;;6.68;;
75689;SDS011;64303;53.118;9.044;2022-10-17T03:33:56;7.13;;;6.43;;
75689;SDS011;64303;53.118;9.044;2022-10-17T03:36:23;7.55;;;6.65;;
75689;SDS011;64303;53.118;9.044;2022-10-17T03:38:52;11.13;;;6.05;;
75689;SDS011;64303;53.118;9.044;2022-10-17T03:41:18;7.50;;;5.53;;
75689;SDS011;64303;53.118;9.044;2022-10-17T03:43:47;8.65;;;6.20;;
75689;SDS011;64303;53.118;9.044;2022-10-17T03:46:14;6.93;;;6.40;;
75689;SDS011;64303;53.118;9.044;2022-10-17T03:48:41;7.53;;;6.82;;
75689;SDS011;64303;53.118;9.044;2022-10-17T03:51:08;8.75;;;5.70;;
75689;SDS011;64303;53.118;9.044;2022-10-17T03:53:45;7.05;;;6.13;;
75689;SDS011;64303;53.118;9.044;2022-10-17T03:56:13;7.72;;;6.55;;
75689;SDS011;64303;53.118;9.044;2022-10-17T04:01:10;7.55;;;6.75;;
75689;SDS011;64303;53.118;9.044;2022-10-17T04:03:38;6.82;;;5.70;;
75689;SDS011;64303;53.118;9.044;2022-10-17T04:06:05;9.68;;;5.43;;
75689;SDS011;64303;53.118;9.044;2022-10-17T04:08:34;9.63;;;7.18;;
75689;SDS011;64303;53.118;9.044;2022-10-17T04:11:09;8.63;;;7.88;;
75689;SDS011;64303;53.118;9.044;2022-10-17T04:13:36;6.88;;;6.22;;
75689;SDS011;64303;53.118;9.044;2022-10-17T04:16:04;6.35;;;4.75;;
75689;SDS011;64303;53.118;9.044;2022-10-17T04:18:34;10.02;;;4.68;;
75689;SDS011;64303;53.118;9.044;2022-10-17T04:21:01;6.10;;;5.38;;
75689;SDS011;64303;53.118;9.044;2022-10-17T04:23:29;9.07;;;6.78;;
75689;SDS011;64303;53.118;9.044;2022-10-17T04:26:01;7.20;;;5.35;;
75689;SDS011;64303;53.118;9.044;2022-10-17T04:28:29;8.75;;;6.53;;
75689;SDS011;64303;53.118;9.044;2022-10-17T04:30:56;6.82;;;5.97;;
75689;SDS011;64303;53.118;9.044;2022-10-17T04:33:22;9.07;;;7.57;;
75689;SDS011;64303;53.118;9.044;2022-10-17T04:35:57;11.85;;;8.30;;
75689;SDS011;64303;53.118;9.044;2022-10-17T04:38:24;9.60;;;6.75;;
75689;SDS011;64303;53.118;9.044;2022-10-17T04:40:51;8.05;;;7.22;;
75689;SDS011;64303;53.118;9.044;2022-10-17T04:43:18;7.63;;;6.25;;
75689;SDS011;64303;53.118;9.044;2022-10-17T04:45:45;8.27;;;6.85;;
75689;SDS011;64303;53.118;9.044;2022-10-17T04:48:11;9.32;;;6.40;;
75689;SDS011;64303;53.118;9.044;2022-10-17T04:50:37;9.63;;;8.10;;
75689;SDS011;64303;53.118;9.044;2022-10-17T04:53:21;9.40;;;8.52;;
75689;SDS011;64303;53.118;9.044;2022-10-17T04:55:49;8.77;;;7.35;;
75689;SDS011;64303;53.118;9.044;2022-10-17T04:58:16;8.90;;;7.35;;
75689;SDS011;64303;53.118;9.044;2022-10-17T05:00:42;9.68;;;7.93;;
75689;SDS011;64303;53.118;9.044;2022-10-17T05:03:13;10.18;;;8.07;;
75689;SDS011;64303;53.118;9.044;2022-10-17T05:05:40;9.55;;;8.07;;
75689;SDS011;64303;53.118;9.044;2022-10-17T05:08:08;8.63;;;6.78;;
75689;SDS011;64303;53.118;9.044;2022-10-17T05:10:37;11.90;;;8.82;;
75689;SDS011;64303;53.118;9.044;2022-10-17T05:13:04;10.20;;;8.00;;
75689;SDS011;64303;53.118;9.044;2022-10-17T05:15:31;8.85;;;7.95;;
75689;SDS011;64303;53.118;9.044;2022-10-17T05:17:59;9.13;;;7.68;;
75689;SDS011;64303;53.118;9.044;2022-10-17T05:22:53;9.60;;;8.52;;
75689;SDS011;64303;53.118;9.044;2022-10-17T05:25:20;9.93;;;6.95;;
75689;SDS011;64303;53.118;9.044;2022-10-17T05:27:48;9.32;;;8.43;;
75689;SDS011;64303;53.118;9.044;2022-10-17T05:30:16;10.40;;;9.40;;
75689;SDS011;64303;53.118;9.044;2022-10-17T05:32:42;9.52;;;7.32;;
75689;SDS011;64303;53.118;9.044;2022-10-17T05:35:09;11.52;;;8.68;;
75689;SDS011;64303;53.118;9.044;2022-10-17T05:37:36;10.60;;;9.32;;
75689;SDS011;64303;53.118;9.044;2022-10-17T05:40:04;9.75;;;8.32;;
75689;SDS011;64303;53.118;9.044;2022-10-17T05:42:31;8.65;;;7.80;;
75689;SDS011;64303;53.118;9.044;2022-10-17T05:44:59;11.65;;;10.45;;
75689;SDS011;64303;53.118;9.044;2022-10-17T05:47:25;12.13;;;8.15;;
75689;SDS011;64303;53.118;9.044;2022-10-17T05:49:52;12.45;;;7.88;;
75689;SDS011;64303;53.118;9.044;2022-10-17T05:52:24;11.65;;;9.45;;
75689;SDS011;64303;53.118;9.044;2022-10-17T05:55:08;10.00;;;7.68;;
75689;SDS011;64303;53.118;9.044;2022-10-17T05:57:35;10.18;;;7.57;;
75689;SDS011;64303;53.118;9.044;2022-10-17T06:00:06;10.27;;;7.97;;
75689;SDS011;64303;53.118;9.044;2022-10-17T06:02:40;7.80;;;6.93;;
75689;SDS011;64303;53.118;9.044;2022-10-17T06:05:07;10.25;;;8.95;;
75689;SDS011;64303;53.118;9.044;2022-10-17T06:07:34;8.73;;;7.30;;
75689;SDS011;64303;53.118;9.044;2022-10-17T06:10:01;9.35;;;8.45;;
75689;SDS011;64303;53.118;9.044;2022-10-17T06:12:29;9.70;;;7.78;;
75689;SDS011;64303;53.118;9.044;2022-10-17T06:14:55;8.73;;;6.85;;
75689;SDS011;64303;53.118;9.044;2022-10-17T06:17:23;8.73;;;7.00;;
75689;SDS011;64303;53.118;9.044;2022-10-17T06:19:49;10.25;;;7.60;;
75689;SDS011;64303;53.118;9.044;2022-10-17T06:22:16;10.02;;;7.35;;
75689;SDS011;64303;53.118;9.044;2022-10-17T06:24:42;7.70;;;6.18;;
75689;SDS011;64303;53.118;9.044;2022-10-17T06:27:10;8.07;;;6.22;;
75689;SDS011;64303;53.118;9.044;2022-10-17T06:29:37;13.13;;;9.23;;
75689;SDS011;64303;53.118;9.044;2022-10-17T06:32:04;8.48;;;7.43;;
75689;SDS011;64303;53.118;9.044;2022-10-17T06:34:33;8.50;;;7.68;;
75689;SDS011;64303;53.118;9.044;2022-10-17T06:37:00;9.23;;;7.55;;
75689;SDS011;64303;53.118;9.044;2022-10-17T06:39:27;7.07;;;6.15;;
75689;SDS011;64303;53.118;9.044;2022-10-17T06:42:04;8.55;;;5.93;;
75689;SDS011;64303;53.118;9.044;2022-10-17T06:44:57;7.75;;;6.70;;
75689;SDS011;64303;53.118;9.044;2022-10-17T06:47:50;8.45;;;5.60;;
75689;SDS011;64303;53.118;9.044;2022-10-17T06:50:38;9.70;;;6.72;;
75689;SDS011;64303;53.118;9.044;2022-10-17T06:53:15;8.25;;;6.20;;
75689;SDS011;64303;53.118;9.044;2022-10-17T06:56:05;8.68;;;7.10;;
75689;SDS011;64303;53.118;9.044;2022-10-17T06:58:53;9.05;;;7.00;;
75689;SDS011;64303;53.118;9.044;2022-10-17T07:01:42;8.70;;;5.95;;
75689;SDS011;64303;53.118;9.044;2022-10-17T07:04:10;8.18;;;7.45;;
75689;SDS011;64303;53.118;9.044;2022-10-17T07:06:37;7.03;;;5.97;;
75689;SDS011;64303;53.118;9.044;2022-10-17T07:09:13;6.50;;;5.80;;
75689;SDS011;64303;53.118;9.044;2022-10-17T07:11:41;8.02;;;6.47;;
75689;SDS011;64303;53.118;9.044;2022-10-17T07:14:07;8.18;;;7.38;;
75689;SDS011;64303;53.118;9.044;2022-10-17T07:16:34;8.25;;;6.05;;
75689;SDS011;64303;53.118;9.044;2022-10-17T07:19:07;6.15;;;5.55;;
75689;SDS011;64303;53.118;9.044;2022-10-17T07:21:35;8.50;;;6.88;;
75689;SDS011;64303;53.118;9.044;2022-10-17T07:24:04;5.22;;;4.47;;
75689;SDS011;64303;53.118;9.044;2022-10-17T07:26:31;6.30;;;4.80;;
75689;SDS011;64303;53.118;9.044;2022-10-17T07:28:59;8.02;;;5.30;;
75689;SDS011;64303;53.118;9.044;2022-10-17T07:31:33;6.63;;;5.75;;
75689;SDS011;64303;53.118;9.044;2022-10-17T07:33:59;6.07;;;5.13;;
75689;SDS011;64303;53.118;9.044;2022-10-17T07:36:26;7.90;;;5.63;;
75689;SDS011;64303;53.118;9.044;2022-10-17T07:38:55;11.18;;;5.22;;
75689;SDS011;64303;53.118;9.044;2022-10-17T07:41:23;5.30;;;4.80;;
75689;SDS011;64303;53.118;9.044;2022-10-17T07:43:50;8.63;;;5.28;;
75689;SDS011;64303;53.118;9.044;2022-10-17T07:46:20;6.93;;;4.05;;
75689;SDS011;64303;53.118;9.044;2022-10-17T07:48:46;6.97;;;4.88;;
75689;SDS011;64303;53.118;9.044;2022-10-17T07:51:13;6.22;;;5.60;;
75689;SDS011;64303;53.118;9.044;2022-10-17T07:53:39;5.72;;;5.00;;
75689;SDS011;64303;53.118;9.044;2022-10-17T07:56:08;6.05;;;4.90;;
75689;SDS011;64303;53.118;9.044;2022-10-17T07:58:35;7.38;;;4.95;;
75689;SDS011;64303;53.118;9.044;2022-10-17T08:01:03;5.05;;;3.85;;
75689;SDS011;64303;53.118;9.044;2022-10-17T08:03:31;7.13;;;4.85;;
75689;SDS011;64303;53.118;9.044;2022-10-17T08:05:57;6.03;;;5.43;;
75689;SDS011;64303;53.118;9.044;2022-10-17T08:08:24;6.30;;;4.63;;
75689;SDS011;64303;53.118;9.044;2022-10-17T08:10:51;6.07;;;5.47;;
75689;SDS011;64303;53.118;9.044;2022-10-17T08:13:19;4.50;;;3.60;;
75689;SDS011;64303;53.118;9.044;2022-10-17T08:15:46;5.65;;;4.95;;
75689;SDS011;64303;53.118;9.044;2022-10-17T08:18:12;6.30;;;4.43;;
75689;SDS011;64303;53.118;9.044;2022-10-17T08:20:39;5.13;;;3.58;;
75689;SDS011;64303;53.118;9.044;2022-10-17T08:23:06;6.53;;;5.85;;
75689;SDS011;64303;53.118;9.044;2022-10-17T08:25:32;7.05;;;4.65;;
75689;SDS011;64303;53.118;9.044;2022-10-17T08:27:59;6.35;;;5.75;;
75689;SDS011;64303;53.118;9.044;2022-10-17T08:30:26;6.65;;;4.38;;
75689;SDS011;64303;53.118;9.044;2022-10-17T08:32:54;5.97;;;4.25;;
75689;SDS011;64303;53.118;9.044;2022-10-17T08:35:21;6.30;;;4.40;;
75689;SDS011;64303;53.118;9.044;2022-10-17T08:37:48;6.75;;;4.38;;
75689;SDS011;64303;53.118;9.044;2022-10-17T08:40:16;6.38;;;4.25;;
75689;SDS011;64303;53.118;9.044;2022-10-17T08:42:49;6.43;;;5.00;;
75689;SDS011;64303;53.118;9.044;2022-10-17T08:45:20;5.55;;;4.22;;
75689;SDS011;64303;53.118;9.044;2022-10-17T08:47:52;7.32;;;4.00;;
75689;SDS011;64303;53.118;9.044;2022-10-17T08:50:28;4.38;;;3.60;;
75689;SDS011;64303;53.118;9.044;2022-10-17T08:53:00;5.07;;;4.32;;
75689;SDS011;64303;53.118;9.044;2022-10-17T08:55:31;5.22;;;3.88;;
75689;SDS011;64303;53.118;9.044;2022-10-17T08:58:01;5.25;;;4.10;;
75689;SDS011;64303;53.118;9.044;2022-10-17T09:00:27;5.32;;;4.90;;
75689;SDS011;64303;53.118;9.044;2022-10-17T09:03:00;4.30;;;2.88;;
75689;SDS011;64303;53.118;9.044;2022-10-17T09:05:40;5.38;;;3.03;;
75689;SDS011;64303;53.118;9.044;2022-10-17T09:10:57;5.10;;;4.35;;
75689;SDS011;64303;53.118;9.044;2022-10-17T09:13:30;6.38;;;4.13;;
75689;SDS011;64303;53.118;9.044;2022-10-17T09:16:05;5.30;;;3.00;;
75689;SDS011;64303;53.118;9.044;2022-10-17T09:18:55;5.93;;;3.33;;
75689;SDS011;64303;53.118;9.044;2022-10-17T09:21:26;4.72;;;3.42;;
75689;SDS011;64303;53.118;9.044;2022-10-17T09:23:58;5.18;;;3.05;;
75689;SDS011;64303;53.118;9.044;2022-10-17T09:26:26;4.60;;;3.80;;
75689;SDS011;64303;53.118;9.044;2022-10-17T09:28:54;5.60;;;3.05;;
75689;SDS011;64303;53.118;9.044;2022-10-17T09:31:24;4.30;;;2.70;;
75689;SDS011;64303;53.118;9.044;2022-10-17T09:33:53;6.47;;;3.47;;
75689;SDS011;64303;53.118;9.044;2022-10-17T09:36:23;8.00;;;3.40;;
75689;SDS011;64303;53.118;9.044;2022-10-17T09:38:52;4.30;;;2.92;;
75689;SDS011;64303;53.118;9.044;2022-10-17T09:41:20;4.15;;;3.38;;
75689;SDS011;64303;53.118;9.044;2022-10-17T09:43:50;6.38;;;2.47;;
75689;SDS011;64303;53.118;9.044;2022-10-17T09:46:19;5.47;;;3.85;;
75689;SDS011;64303;53.118;9.044;2022-10-17T09:48:50;6.07;;;3.08;;
75689;SDS011;64303;53.118;9.044;2022-10-17T09:51:20;5.35;;;4.07;;
75689;SDS011;64303;53.118;9.044;2022-10-17T09:53:48;6.70;;;3.95;;
75689;SDS011;64303;53.118;9.044;2022-10-17T09:56:18;5.95;;;2.95;;
75689;SDS011;64303;53.118;9.044;2022-10-17T09:58:45;5.97;;;3.88;;
75689;SDS011;64303;53.118;9.044;2022-10-17T10:01:20;5.47;;;3.92;;
75689;SDS011;64303;53.118;9.044;2022-10-17T10:03:49;5.65;;;4.03;;
75689;SDS011;64303;53.118;9.044;2022-10-17T10:06:35;5.53;;;3.47;;
75689;SDS011;64303;53.118;9.044;2022-10-17T10:09:02;5.72;;;3.60;;
75689;SDS011;64303;53.118;9.044;2022-10-17T10:11:43;4.97;;;3.25;;
75689;SDS011;64303;53.118;9.044;2022-10-17T10:14:12;5.13;;;3.80;;
75689;SDS011;64303;53.118;9.044;2022-10-17T10:16:43;5.00;;;2.20;;
75689;SDS011;64303;53.118;9.044;2022-10-17T10:19:18;7.65;;;4.05;;
75689;SDS011;64303;53.118;9.044;2022-10-17T10:21:53;6.93;;;4.10;;
75689;SDS011;64303;53.118;9.044;2022-10-17T10:24:20;6.47;;;4.47;;
75689;SDS011;64303;53.118;9.044;2022-10-17T10:26:48;4.97;;;4.47;;
75689;SDS011;64303;53.118;9.044;2022-10-17T10:29:25;7.03;;;6.32;;
75689;SDS011;64303;53.118;9.044;2022-10-17T10:31:54;5.45;;;3.65;;
75689;SDS011;64303;53.118;9.044;2022-10-17T10:34:22;5.88;;;3.75;;
75689;SDS011;64303;53.118;9.044;2022-10-17T10:36:54;5.10;;;4.03;;
75689;SDS011;64303;53.118;9.044;2022-10-17T10:39:27;7.88;;;6.05;;
75689;SDS011;64303;53.118;9.044;2022-10-17T10:42:20;7.18;;;4.47;;
75689;SDS011;64303;53.118;9.044;2022-10-17T10:44:48;6.53;;;3.60;;
75689;SDS011;64303;53.118;9.044;2022-10-17T10:47:19;5.57;;;3.22;;
75689;SDS011;64303;53.118;9.044;2022-10-17T10:49:49;7.95;;;3.50;;
75689;SDS011;64303;53.118;9.044;2022-10-17T10:52:26;10.50;;;3.60;;
75689;SDS011;64303;53.118;9.044;2022-10-17T10:54:59;7.25;;;4.38;;
75689;SDS011;64303;53.118;9.044;2022-10-17T10:57:30;6.90;;;3.67;;
75689;SDS011;64303;53.118;9.044;2022-10-17T10:59:59;6.32;;;4.63;;
75689;SDS011;64303;53.118;9.044;2022-10-17T11:02:32;6.40;;;3.97;;
75689;SDS011;64303;53.118;9.044;2022-10-17T11:05:02;5.60;;;4.80;;
75689;SDS011;64303;53.118;9.044;2022-10-17T11:07:32;4.97;;;4.20;;
75689;SDS011;64303;53.118;9.044;2022-10-17T11:10:02;5.50;;;4.47;;
75689;SDS011;64303;53.118;9.044;2022-10-17T11:12:35;4.93;;;3.72;;
75689;SDS011;64303;53.118;9.044;2022-10-17T11:15:06;5.53;;;3.92;;
75689;SDS011;64303;53.118;9.044;2022-10-17T11:17:39;6.90;;;3.65;;
75689;SDS011;64303;53.118;9.044;2022-10-17T11:20:10;5.68;;;4.25;;
75689;SDS011;64303;53.118;9.044;2022-10-17T11:22:42;5.07;;;4.25;;
75689;SDS011;64303;53.118;9.044;2022-10-17T11:25:14;6.95;;;4.35;;
75689;SDS011;64303;53.118;9.044;2022-10-17T11:27:47;5.13;;;3.85;;
75689;SDS011;64303;53.118;9.044;2022-10-17T11:30:13;8.35;;;3.30;;
75689;SDS011;64303;53.118;9.044;2022-10-17T11:35:22;5.80;;;4.47;;
75689;SDS011;64303;53.118;9.044;2022-10-17T11:37:59;7.13;;;4.13;;
75689;SDS011;64303;53.118;9.044;2022-10-17T11:40:29;7.20;;;5.13;;
75689;SDS011;64303;53.118;9.044;2022-10-17T11:42:58;6.85;;;4.03;;
75689;SDS011;64303;53.118;9.044;2022-10-17T11:45:26;7.22;;;5.18;;
75689;SDS011;64303;53.118;9.044;2022-10-17T11:47:57;8.77;;;6.25;;
75689;SDS011;64303;53.118;9.044;2022-10-17T11:50:25;6.00;;;3.60;;
75689;SDS011;64303;53.118;9.044;2022-10-17T11:52:55;8.80;;;4.57;;
75689;SDS011;64303;53.118;9.044;2022-10-17T11:55:24;8.48;;;4.75;;
75689;SDS011;64303;53.118;9.044;2022-10-17T11:58:00;5.07;;;4.13;;
75689;SDS011;64303;53.118;9.044;2022-10-17T12:00:42;6.13;;;4.25;;
75689;SDS011;64303;53.118;9.044;2022-10-17T12:03:17;7.32;;;5.50;;
75689;SDS011;64303;53.118;9.044;2022-10-17T12:05:51;6.55;;;4.20;;
75689;SDS011;64303;53.118;9.044;2022-10-17T12:08:25;6.20;;;4.00;;
75689;SDS011;64303;53.118;9.044;2022-10-17T12:10:56;6.50;;;5.38;;
75689;SDS011;64303;53.118;9.044;2022-10-17T12:16:37;7.38;;;5.05;;
75689;SDS011;64303;53.118;9.044;2022-10-17T12:19:26;8.15;;;5.28;;
75689;SDS011;64303;53.118;9.044;2022-10-17T12:24:57;9.90;;;6.82;;
75689;SDS011;64303;53.118;9.044;2022-10-17T12:27:38;10.65;;;6.05;;
75689;SDS011;64303;53.118;9.044;2022-10-17T12:30:17;10.10;;;8.52;;
75689;SDS011;64303;53.118;9.044;2022-10-17T12:32:53;12.98;;;8.95;;
75689;SDS011;64303;53.118;9.044;2022-10-17T12:35:21;13.57;;;8.68;;
75689;SDS011;64303;53.118;9.044;2022-10-17T12:37:59;14.75;;;10.57;;
75689;SDS011;64303;53.118;9.044;2022-10-17T12:40:47;15.23;;;8.95;;
75689;SDS011;64303;53.118;9.044;2022-10-17T12:49:24;14.00;;;9.95;;
75689;SDS011;64303;53.118;9.044;2022-10-17T12:54:53;12.43;;;10.40;;
75689;SDS011;64303;53.118;9.044;2022-10-17T12:57:29;16.05;;;11.30;;
75689;SDS011;64303;53.118;9.044;2022-10-17T12:59:57;12.75;;;9.45;;
75689;SDS011;64303;53.118;9.044;2022-10-17T13:02:27;13.93;;;9.82;;
75689;SDS011;64303;53.118;9.044;2022-10-17T13:04:56;13.70;;;11.55;;
75689;SDS011;64303;53.118;9.044;2022-10-17T13:07:28;14.07;;;12.30;;
75689;SDS011;64303;53.118;9.044;2022-10-17T13:09:54;17.05;;;11.73;;
75689;SDS011;64303;53.118;9.044;2022-10-17T13:12:22;17.83;;;11.02;;
75689;SDS011;64303;53.118;9.044;2022-10-17T13:14:51;15.85;;;12.35;;
75689;SDS011;64303;53.118;9.044;2022-10-17T13:17:20;16.58;;;13.13;;
75689;SDS011;64303;53.118;9.044;2022-10-17T13:19:48;13.65;;;11.63;;
75689;SDS011;64303;53.118;9.044;2022-10-17T13:22:15;18.65;;;11.65;;
75689;SDS011;64303;53.118;9.044;2022-10-17T13:24:43;15.50;;;10.38;;
75689;SDS011;64303;53.118;9.044;2022-10-17T13:27:20;14.25;;;11.13;;
75689;SDS011;64303;53.118;9.044;2022-10-17T13:29:50;13.85;;;11.43;;
75689;SDS011;64303;53.118;9.044;2022-10-17T13:34:43;15.10;;;10.48;;
75689;SDS011;64303;53.118;9.044;2022-10-17T13:37:11;16.55;;;11.95;;
75689;SDS011;64303;53.118;9.044;2022-10-17T13:39:40;15.73;;;11.82;;
75689;SDS011;64303;53.118;9.044;2022-10-17T13:42:14;17.35;;;11.15;;
75689;SDS011;64303;53.118;9.044;2022-10-17T13:44:44;13.65;;;11.68;;
75689;SDS011;64303;53.118;9.044;2022-10-17T13:47:20;13.27;;;9.93;;
75689;SDS011;64303;53.118;9.044;2022-10-17T13:49:47;13.98;;;10.35;;
75689;SDS011;64303;53.118;9.044;2022-10-17T13:52:15;14.75;;;11.85;;
75689;SDS011;64303;53.118;9.044;2022-10-17T13:54:44;17.92;;;12.13;;
75689;SDS011;64303;53.118;9.044;2022-10-17T13:59:45;15.65;;;12.80;;
75689;SDS011;64303;53.118;9.044;2022-10-17T14:02:13;18.00;;;10.57;;
75689;SDS011;64303;53.118;9.044;2022-10-17T14:04:42;15.38;;;11.68;;
75689;SDS011;64303;53.118;9.044;2022-10-17T14:07:14;15.18;;;12.02;;
75689;SDS011;64303;53.118;9.044;2022-10-17T14:09:46;17.40;;;11.98;;
75689;SDS011;64303;53.118;9.044;2022-10-17T14:12:13;15.82;;;12.32;;
75689;SDS011;64303;53.118;9.044;2022-10-17T14:14:45;18.60;;;12.13;;
75689;SDS011;64303;53.118;9.044;2022-10-17T14:17:13;14.73;;;11.27;;
75689;SDS011;64303;53.118;9.044;2022-10-17T14:19:41;18.60;;;11.45;;
75689;SDS011;64303;53.118;9.044;2022-10-17T14:22:14;15.30;;;12.23;;
75689;SDS011;64303;53.118;9.044;2022-10-17T14:24:42;14.18;;;11.18;;
75689;SDS011;64303;53.118;9.044;2022-10-17T14:27:22;13.80;;;11.88;;
75689;SDS011;64303;53.118;9.044;2022-10-17T14:29:51;16.35;;;11.52;;
75689;SDS011;64303;53.118;9.044;2022-10-17T14:34:50;16.90;;;11.55;;
75689;SDS011;64303;53.118;9.044;2022-10-17T14:37:21;13.50;;;11.27;;
75689;SDS011;64303;53.118;9.044;2022-10-17T14:39:53;13.30;;;10.30;;
75689;SDS011;64303;53.118;9.044;2022-10-17T14:42:20;13.23;;;9.90;;
75689;SDS011;64303;53.118;9.044;2022-10-17T14:44:48;13.57;;;10.82;;
75689;SDS011;64303;53.118;9.044;2022-10-17T14:47:15;13.02;;;10.13;;
75689;SDS011;64303;53.118;9.044;2022-10-17T14:49:48;12.40;;;9.85;;
75689;SDS011;64303;53.118;9.044;2022-10-17T14:52:28;10.13;;;8.25;;
75689;SDS011;64303;53.118;9.044;2022-10-17T14:54:56;12.40;;;7.95;;
75689;SDS011;64303;53.118;9.044;2022-10-17T14:57:25;13.05;;;9.80;;
75689;SDS011;64303;53.118;9.044;2022-10-17T14:59:53;13.68;;;10.55;;
75689;SDS011;64303;53.118;9.044;2022-10-17T15:02:20;12.82;;;10.63;;
75689;SDS011;64303;53.118;9.044;2022-10-17T15:04:48;13.98;;;9.77;;
75689;SDS011;64303;53.118;9.044;2022-10-17T15:07:14;12.05;;;9.93;;
75689;SDS011;64303;53.118;9.044;2022-10-17T15:09:41;11.93;;;10.65;;
75689;SDS011;64303;53.118;9.044;2022-10-17T15:12:12;15.35;;;9.88;;
75689;SDS011;64303;53.118;9.044;2022-10-17T15:14:40;12.90;;;11.38;;
75689;SDS011;64303;53.118;9.044;2022-10-17T15:17:09;12.38;;;10.20;;
75689;SDS011;64303;53.118;9.044;2022-10-17T15:19:37;14.02;;;9.68;;
75689;SDS011;64303;53.118;9.044;2022-10-17T15:22:05;11.60;;;10.32;;
75689;SDS011;64303;53.118;9.044;2022-10-17T15:24:31;12.95;;;9.35;;
75689;SDS011;64303;53.118;9.044;2022-10-17T15:26:58;9.20;;;8.25;;
75689;SDS011;64303;53.118;9.044;2022-10-17T15:29:24;12.32;;;10.68;;
75689;SDS011;64303;53.118;9.044;2022-10-17T15:31:51;10.57;;;9.48;;
75689;SDS011;64303;53.118;9.044;2022-10-17T15:34:17;12.27;;;10.35;;
75689;SDS011;64303;53.118;9.044;2022-10-17T15:36:47;11.40;;;9.65;;
75689;SDS011;64303;53.118;9.044;2022-10-17T15:39:16;11.75;;;7.50;;